sensor_id;sensor_type;location;lat;lon;timestamp;pressure;altitude;pressure_sealevel;temperature;humidity
17309;BME280;8772;42.804;23.426;2023-07-13T00:00:37;72857.91;;;-140.58;83.26
17309;BME280;8772;42.804;23.426;2023-07-13T00:03:04;72853.81;;;-140.58;82.55
17309;BME280;8772;42.804;23.426;2023-07-13T00:05:31;72855.88;;;-140.58;82.81
17309;BME280;8772;42.804;23.426;2023-07-13T00:07:58;72859.97;;;-140.58;84.11
17309;BME280;8772;42.804;23.426;2023-07-13T00:10:25;72862.03;;;-140.58;82.78
17309;BME280;8772;42.804;23.426;2023-07-13T00:12:52;72862.03;;;-140.58;84.89
17309;BME280;8772;42.804;23.426;2023-07-13T00:15:23;72855.88;;;-140.58;83.55
17309;BME280;8772;42.804;23.426;2023-07-13T00:17:53;72866.13;;;-140.58;83.70
17309;BME280;8772;42.804;23.426;2023-07-13T00:20:21;72868.19;;;-140.58;84.59
17309;BME280;8772;42.804;23.426;2023-07-13T00:22:51;72859.97;;;-140.58;83.01
17309;BME280;8772;42.804;23.426;2023-07-13T00:25:19;72866.13;;;-140.58;85.38
17309;BME280;8772;42.804;23.426;2023-07-13T00:27:47;72882.53;;;-140.58;85.45
17309;BME280;8772;42.804;23.426;2023-07-13T00:30:15;72888.69;;;-140.58;87.20
17309;BME280;8772;42.804;23.426;2023-07-13T00:32:42;72859.97;;;-140.58;82.94
17309;BME280;8772;42.804;23.426;2023-07-13T00:35:12;72870.22;;;-140.58;85.43
17309;BME280;8772;42.804;23.426;2023-07-13T00:37:39;72874.31;;;-140.58;85.23
17309;BME280;8772;42.804;23.426;2023-07-13T00:40:07;72880.47;;;-140.58;85.43
17309;BME280;8772;42.804;23.426;2023-07-13T00:42:36;72884.59;;;-140.58;86.31
17309;BME280;8772;42.804;23.426;2023-07-13T00:45:05;72857.91;;;-140.58;83.71
17309;BME280;8772;42.804;23.426;2023-07-13T00:47:33;72853.81;;;-140.58;82.42
17309;BME280;8772;42.804;23.426;2023-07-13T00:50:00;72855.88;;;-140.58;83.31
17309;BME280;8772;42.804;23.426;2023-07-13T00:52:30;72849.72;;;-140.58;83.08
17309;BME280;8772;42.804;23.426;2023-07-13T00:54:57;72849.72;;;-140.58;84.28
17309;BME280;8772;42.804;23.426;2023-07-13T00:57:25;72845.63;;;-140.58;82.28
17309;BME280;8772;42.804;23.426;2023-07-13T00:59:55;72845.63;;;-140.58;81.47
17309;BME280;8772;42.804;23.426;2023-07-13T01:02:24;72837.41;;;-140.58;82.58
17309;BME280;8772;42.804;23.426;2023-07-13T01:08:07;72851.75;;;-140.58;82.91
17309;BME280;8772;42.804;23.426;2023-07-13T01:10:35;72853.81;;;-140.58;84.65
17309;BME280;8772;42.804;23.426;2023-07-13T01:13:05;72853.81;;;-140.58;85.17
17309;BME280;8772;42.804;23.426;2023-07-13T01:15:35;72866.13;;;-140.58;83.90
17309;BME280;8772;42.804;23.426;2023-07-13T01:18:04;72890.72;;;-140.58;86.63
17309;BME280;8772;42.804;23.426;2023-07-13T01:20:31;72901.00;;;-140.58;87.97
17309;BME280;8772;42.804;23.426;2023-07-13T01:23:04;72901.00;;;-140.58;86.06
17309;BME280;8772;42.804;23.426;2023-07-13T01:25:33;72903.03;;;-140.58;84.72
17309;BME280;8772;42.804;23.426;2023-07-13T01:28:00;72898.94;;;-140.58;85.14
17309;BME280;8772;42.804;23.426;2023-07-13T01:30:27;72884.59;;;-140.58;84.25
17309;BME280;8772;42.804;23.426;2023-07-13T01:32:54;72876.38;;;-140.58;82.79
17309;BME280;8772;42.804;23.426;2023-07-13T01:35:21;72878.44;;;-140.58;84.10
17309;BME280;8772;42.804;23.426;2023-07-13T01:37:48;72878.44;;;-140.58;85.07
17309;BME280;8772;42.804;23.426;2023-07-13T01:40:17;72870.22;;;-140.58;84.65
17309;BME280;8772;42.804;23.426;2023-07-13T01:42:43;72857.91;;;-140.58;84.04
17309;BME280;8772;42.804;23.426;2023-07-13T01:45:10;72849.72;;;-140.58;85.07
17309;BME280;8772;42.804;23.426;2023-07-13T01:47:37;72839.47;;;-140.58;85.31
17309;BME280;8772;42.804;23.426;2023-07-13T01:50:05;72855.88;;;-140.58;83.86
17309;BME280;8772;42.804;23.426;2023-07-13T01:52:32;72901.00;;;-140.58;84.44
17309;BME280;8772;42.804;23.426;2023-07-13T01:54:59;72905.09;;;-140.58;85.18
17309;BME280;8772;42.804;23.426;2023-07-13T01:57:27;72911.25;;;-140.58;85.62
17309;BME280;8772;42.804;23.426;2023-07-13T01:59:54;72919.44;;;-140.58;86.24
17309;BME280;8772;42.804;23.426;2023-07-13T02:02:21;72927.66;;;-140.58;86.89
17309;BME280;8772;42.804;23.426;2023-07-13T02:04:48;72952.25;;;-140.58;88.42
17309;BME280;8772;42.804;23.426;2023-07-13T02:07:15;72950.22;;;-140.58;89.96
17309;BME280;8772;42.804;23.426;2023-07-13T02:09:42;72956.38;;;-140.58;90.02
17309;BME280;8772;42.804;23.426;2023-07-13T02:12:09;72974.81;;;-140.58;89.96
17309;BME280;8772;42.804;23.426;2023-07-13T02:14:37;72972.78;;;-140.58;89.50
17309;BME280;8772;42.804;23.426;2023-07-13T02:17:04;72985.06;;;-140.58;89.70
17309;BME280;8772;42.804;23.426;2023-07-13T02:19:32;72983.03;;;-140.58;90.44
17309;BME280;8772;42.804;23.426;2023-07-13T02:21:59;72972.78;;;-140.58;91.98
17309;BME280;8772;42.804;23.426;2023-07-13T02:24:26;72985.06;;;-140.58;92.17
17309;BME280;8772;42.804;23.426;2023-07-13T02:26:53;72999.44;;;-140.58;91.97
17309;BME280;8772;42.804;23.426;2023-07-13T02:29:20;72999.44;;;-140.58;91.69
17309;BME280;8772;42.804;23.426;2023-07-13T02:31:48;73013.78;;;-140.58;91.26
17309;BME280;8772;42.804;23.426;2023-07-13T02:34:15;73015.84;;;-140.58;92.25
17309;BME280;8772;42.804;23.426;2023-07-13T02:36:42;73030.19;;;-140.58;93.84
17309;BME280;8772;42.804;23.426;2023-07-13T02:39:11;73022.00;;;-140.58;95.36
17309;BME280;8772;42.804;23.426;2023-07-13T02:41:38;73017.91;;;-140.58;93.58
17309;BME280;8772;42.804;23.426;2023-07-13T02:44:05;73022.00;;;-140.58;94.30
17309;BME280;8772;42.804;23.426;2023-07-13T02:46:35;73026.09;;;-140.58;93.02
17309;BME280;8772;42.804;23.426;2023-07-13T02:49:04;73036.34;;;-140.58;93.20
17309;BME280;8772;42.804;23.426;2023-07-13T02:51:30;73032.25;;;-140.58;92.51
17309;BME280;8772;42.804;23.426;2023-07-13T02:53:59;73046.59;;;-140.58;93.45
17309;BME280;8772;42.804;23.426;2023-07-13T02:56:29;73042.50;;;-140.58;94.40
17309;BME280;8772;42.804;23.426;2023-07-13T02:58:57;73054.81;;;-140.58;95.13
17309;BME280;8772;42.804;23.426;2023-07-13T03:01:24;73063.00;;;-140.58;94.87
17309;BME280;8772;42.804;23.426;2023-07-13T03:03:52;73075.31;;;-140.58;94.88
17309;BME280;8772;42.804;23.426;2023-07-13T03:06:21;73065.06;;;-140.58;95.43
17309;BME280;8772;42.804;23.426;2023-07-13T03:08:48;73050.72;;;-140.58;93.51
17309;BME280;8772;42.804;23.426;2023-07-13T03:11:17;73060.97;;;-140.58;94.09
17309;BME280;8772;42.804;23.426;2023-07-13T03:13:45;73054.81;;;-140.58;94.34
17309;BME280;8772;42.804;23.426;2023-07-13T03:16:12;73050.72;;;-140.58;94.53
17309;BME280;8772;42.804;23.426;2023-07-13T03:18:41;73067.13;;;-140.58;95.56
17309;BME280;8772;42.804;23.426;2023-07-13T03:21:08;73058.91;;;-140.58;96.10
17309;BME280;8772;42.804;23.426;2023-07-13T03:23:37;73083.53;;;-140.58;98.77
17309;BME280;8772;42.804;23.426;2023-07-13T03:26:06;73071.22;;;-140.58;96.13
17309;BME280;8772;42.804;23.426;2023-07-13T03:28:33;73073.28;;;-140.58;95.94
17309;BME280;8772;42.804;23.426;2023-07-13T03:31:02;73071.22;;;-140.58;97.98
17309;BME280;8772;42.804;23.426;2023-07-13T03:33:29;73065.06;;;-140.58;96.38
17309;BME280;8772;42.804;23.426;2023-07-13T03:35:56;73058.91;;;-140.58;98.35
17309;BME280;8772;42.804;23.426;2023-07-13T03:38:23;73060.97;;;-140.58;99.27
17309;BME280;8772;42.804;23.426;2023-07-13T03:40:51;73058.91;;;-140.58;98.00
17309;BME280;8772;42.804;23.426;2023-07-13T03:43:18;73052.75;;;-140.58;97.92
17309;BME280;8772;42.804;23.426;2023-07-13T03:45:46;73052.75;;;-140.58;96.21
17309;BME280;8772;42.804;23.426;2023-07-13T03:48:13;73050.72;;;-140.58;97.17
17309;BME280;8772;42.804;23.426;2023-07-13T03:50:40;73038.41;;;-140.58;97.26
17309;BME280;8772;42.804;23.426;2023-07-13T03:53:07;73030.19;;;-140.58;97.17
17309;BME280;8772;42.804;23.426;2023-07-13T03:55:34;73015.84;;;-140.58;97.12
17309;BME280;8772;42.804;23.426;2023-07-13T03:58:23;73013.78;;;-140.58;97.69
17309;BME280;8772;42.804;23.426;2023-07-13T04:00:51;73017.91;;;-140.58;97.75
17309;BME280;8772;42.804;23.426;2023-07-13T04:03:18;73017.91;;;-140.58;99.54
17309;BME280;8772;42.804;23.426;2023-07-13T04:05:45;73026.09;;;-140.58;99.26
17309;BME280;8772;42.804;23.426;2023-07-13T04:08:12;73022.00;;;-140.58;98.54
17309;BME280;8772;42.804;23.426;2023-07-13T04:10:39;73048.66;;;-140.58;100.00
17309;BME280;8772;42.804;23.426;2023-07-13T04:13:08;73050.72;;;-140.58;100.00
17309;BME280;8772;42.804;23.426;2023-07-13T04:15:34;73038.41;;;-140.58;100.00
17309;BME280;8772;42.804;23.426;2023-07-13T04:18:01;73015.84;;;-140.58;100.00
17309;BME280;8772;42.804;23.426;2023-07-13T04:20:29;73011.75;;;-140.58;100.00
17309;BME280;8772;42.804;23.426;2023-07-13T04:22:56;73001.47;;;-140.58;100.00
17309;BME280;8772;42.804;23.426;2023-07-13T04:25:24;73007.63;;;-140.58;100.00
17309;BME280;8772;42.804;23.426;2023-07-13T04:27:50;73001.47;;;-140.58;100.00
17309;BME280;8772;42.804;23.426;2023-07-13T04:30:19;72991.22;;;-140.58;100.00
17309;BME280;8772;42.804;23.426;2023-07-13T04:32:47;72993.28;;;-140.58;100.00
17309;BME280;8772;42.804;23.426;2023-07-13T04:35:14;72995.34;;;-140.58;100.00
17309;BME280;8772;42.804;23.426;2023-07-13T04:37:40;72995.34;;;-140.58;100.00
17309;BME280;8772;42.804;23.426;2023-07-13T04:40:08;72976.88;;;-140.58;100.00
17309;BME280;8772;42.804;23.426;2023-07-13T04:42:37;72964.56;;;-140.58;100.00
17309;BME280;8772;42.804;23.426;2023-07-13T04:45:06;72956.38;;;-140.58;100.00
17309;BME280;8772;42.804;23.426;2023-07-13T04:47:34;72944.06;;;-140.58;100.00
17309;BME280;8772;42.804;23.426;2023-07-13T04:50:01;72931.75;;;-140.58;100.00
17309;BME280;8772;42.804;23.426;2023-07-13T04:52:28;72923.56;;;-140.58;100.00
17309;BME280;8772;42.804;23.426;2023-07-13T04:54:55;72919.44;;;-140.58;100.00
17309;BME280;8772;42.804;23.426;2023-07-13T04:57:22;72903.03;;;-140.58;100.00
17309;BME280;8772;42.804;23.426;2023-07-13T04:59:49;72888.69;;;-140.58;100.00
17309;BME280;8772;42.804;23.426;2023-07-13T05:02:16;72882.53;;;-140.58;100.00
17309;BME280;8772;42.804;23.426;2023-07-13T05:04:46;72878.44;;;-140.58;100.00
17309;BME280;8772;42.804;23.426;2023-07-13T05:07:13;72866.13;;;-140.58;100.00
17309;BME280;8772;42.804;23.426;2023-07-13T05:09:40;72849.72;;;-140.58;100.00
17309;BME280;8772;42.804;23.426;2023-07-13T05:12:08;72837.41;;;-140.58;100.00
17309;BME280;8772;42.804;23.426;2023-07-13T05:14:35;72821.00;;;-140.58;100.00
17309;BME280;8772;42.804;23.426;2023-07-13T05:17:03;72812.81;;;-140.58;100.00
17309;BME280;8772;42.804;23.426;2023-07-13T05:19:30;72808.69;;;-140.58;98.60
17309;BME280;8772;42.804;23.426;2023-07-13T05:21:58;72792.28;;;-140.58;98.14
17309;BME280;8772;42.804;23.426;2023-07-13T05:24:25;72780.00;;;-140.58;95.11
17309;BME280;8772;42.804;23.426;2023-07-13T05:26:52;72757.44;;;-140.58;95.92
17309;BME280;8772;42.804;23.426;2023-07-13T05:29:20;72734.88;;;-140.58;97.07
17309;BME280;8772;42.804;23.426;2023-07-13T05:31:46;72716.41;;;-140.58;97.79
17309;BME280;8772;42.804;23.426;2023-07-13T05:34:13;72695.91;;;-140.58;88.66
17309;BME280;8772;42.804;23.426;2023-07-13T05:36:41;72679.50;;;-140.58;85.03
17309;BME280;8772;42.804;23.426;2023-07-13T05:39:09;72654.88;;;-140.58;84.07
17309;BME280;8772;42.804;23.426;2023-07-13T05:41:37;72634.38;;;-140.58;84.53
17309;BME280;8772;42.804;23.426;2023-07-13T05:44:04;72607.72;;;-140.58;81.88
17309;BME280;8772;42.804;23.426;2023-07-13T05:46:30;72591.31;;;-140.58;82.22
17309;BME280;8772;42.804;23.426;2023-07-13T05:48:57;72566.72;;;-140.58;83.55
17309;BME280;8772;42.804;23.426;2023-07-13T05:51:24;72550.31;;;-140.58;79.69
17309;BME280;8772;42.804;23.426;2023-07-13T05:53:51;72525.69;;;-140.58;76.22
17309;BME280;8772;42.804;23.426;2023-07-13T05:56:19;72511.34;;;-140.58;76.18
17309;BME280;8772;42.804;23.426;2023-07-13T05:58:47;72496.97;;;-140.58;74.97
17309;BME280;8772;42.804;23.426;2023-07-13T06:01:15;72480.59;;;-140.58;76.61
17309;BME280;8772;42.804;23.426;2023-07-13T06:03:42;72472.38;;;-140.58;74.67
17309;BME280;8772;42.804;23.426;2023-07-13T06:06:09;72449.81;;;-140.58;67.75
17309;BME280;8772;42.804;23.426;2023-07-13T06:08:37;72437.50;;;-140.58;66.24
17309;BME280;8772;42.804;23.426;2023-07-13T06:11:05;72425.22;;;-140.58;71.44
17309;BME280;8772;42.804;23.426;2023-07-13T06:13:34;72406.75;;;-140.58;69.17
17309;BME280;8772;42.804;23.426;2023-07-13T06:16:01;72394.44;;;-140.58;70.47
17309;BME280;8772;42.804;23.426;2023-07-13T06:18:29;72384.19;;;-140.58;70.41
17309;BME280;8772;42.804;23.426;2023-07-13T06:20:56;72373.94;;;-140.58;66.41
17309;BME280;8772;42.804;23.426;2023-07-13T06:23:23;72361.66;;;-140.58;65.32
17309;BME280;8772;42.804;23.426;2023-07-13T06:25:50;72355.50;;;-140.58;64.59
17309;BME280;8772;42.804;23.426;2023-07-13T06:28:17;72347.28;;;-140.58;65.82
17309;BME280;8772;42.804;23.426;2023-07-13T06:30:45;72328.84;;;-140.58;62.34
17309;BME280;8772;42.804;23.426;2023-07-13T06:33:12;72330.88;;;-140.58;62.05
17309;BME280;8772;42.804;23.426;2023-07-13T06:35:39;72318.59;;;-140.58;63.97
17309;BME280;8772;42.804;23.426;2023-07-13T06:38:06;72314.47;;;-140.58;70.51
17309;BME280;8772;42.804;23.426;2023-07-13T06:40:33;72304.22;;;-140.58;64.64
17309;BME280;8772;42.804;23.426;2023-07-13T06:43:00;72285.78;;;-140.58;63.78
17309;BME280;8772;42.804;23.426;2023-07-13T06:45:26;72269.38;;;-140.58;65.54
17309;BME280;8772;42.804;23.426;2023-07-13T06:47:55;72246.81;;;-140.58;66.70
17309;BME280;8772;42.804;23.426;2023-07-13T06:50:21;72226.31;;;-140.58;63.63
17309;BME280;8772;42.804;23.426;2023-07-13T06:52:48;72214.00;;;-140.58;61.95
17309;BME280;8772;42.804;23.426;2023-07-13T06:55:15;72211.97;;;-140.58;60.54
17309;BME280;8772;42.804;23.426;2023-07-13T06:57:42;72193.50;;;-140.58;62.53
17309;BME280;8772;42.804;23.426;2023-07-13T07:00:10;72185.28;;;-140.58;62.88
17309;BME280;8772;42.804;23.426;2023-07-13T07:02:37;72179.16;;;-140.58;63.27
17309;BME280;8772;42.804;23.426;2023-07-13T07:05:05;72164.78;;;-140.58;61.11
17309;BME280;8772;42.804;23.426;2023-07-13T07:07:32;72144.28;;;-140.58;63.14
17309;BME280;8772;42.804;23.426;2023-07-13T07:09:59;72132.00;;;-140.58;64.32
17309;BME280;8772;42.804;23.426;2023-07-13T07:12:26;72115.59;;;-140.58;62.69
17309;BME280;8772;42.804;23.426;2023-07-13T07:14:53;72111.47;;;-140.58;64.28
17309;BME280;8772;42.804;23.426;2023-07-13T07:17:20;72101.22;;;-140.58;58.55
17309;BME280;8772;42.804;23.426;2023-07-13T07:19:47;72090.97;;;-140.58;58.16
17309;BME280;8772;42.804;23.426;2023-07-13T07:22:15;72082.78;;;-140.58;64.80
17309;BME280;8772;42.804;23.426;2023-07-13T07:24:42;72074.56;;;-140.58;57.93
17309;BME280;8772;42.804;23.426;2023-07-13T07:27:09;72066.38;;;-140.58;58.49
17309;BME280;8772;42.804;23.426;2023-07-13T07:29:35;72047.91;;;-140.58;60.03
17309;BME280;8772;42.804;23.426;2023-07-13T07:32:03;72037.66;;;-140.58;63.93
17309;BME280;8772;42.804;23.426;2023-07-13T07:34:30;72029.47;;;-140.58;62.38
17309;BME280;8772;42.804;23.426;2023-07-13T07:36:59;72025.38;;;-140.58;56.10
17309;BME280;8772;42.804;23.426;2023-07-13T07:39:28;72017.16;;;-140.58;55.11
17309;BME280;8772;42.804;23.426;2023-07-13T07:41:55;71996.66;;;-140.58;54.15
17309;BME280;8772;42.804;23.426;2023-07-13T07:44:21;71988.47;;;-140.58;53.67
17309;BME280;8772;42.804;23.426;2023-07-13T07:46:48;71980.25;;;-140.58;55.20
17309;BME280;8772;42.804;23.426;2023-07-13T07:49:15;71974.09;;;-140.58;51.70
17309;BME280;8772;42.804;23.426;2023-07-13T07:51:42;71967.97;;;-140.58;52.43
17309;BME280;8772;42.804;23.426;2023-07-13T07:54:09;71947.44;;;-140.58;52.53
17309;BME280;8772;42.804;23.426;2023-07-13T07:56:37;71941.31;;;-140.58;54.37
17309;BME280;8772;42.804;23.426;2023-07-13T07:59:04;71922.84;;;-140.58;53.90
17309;BME280;8772;42.804;23.426;2023-07-13T08:01:31;71916.69;;;-140.58;51.28
17309;BME280;8772;42.804;23.426;2023-07-13T08:03:58;71906.44;;;-140.58;51.00
17309;BME280;8772;42.804;23.426;2023-07-13T08:06:25;71900.28;;;-140.58;48.69
17309;BME280;8772;42.804;23.426;2023-07-13T08:08:52;71894.16;;;-140.58;50.82
17309;BME280;8772;42.804;23.426;2023-07-13T08:11:20;71883.91;;;-140.58;49.70
17309;BME280;8772;42.804;23.426;2023-07-13T08:13:49;71879.78;;;-140.58;49.77
17309;BME280;8772;42.804;23.426;2023-07-13T08:16:16;71871.59;;;-140.58;51.03
17309;BME280;8772;42.804;23.426;2023-07-13T08:18:43;71859.28;;;-140.58;49.69
17309;BME280;8772;42.804;23.426;2023-07-13T08:21:10;71840.84;;;-140.58;50.71
17309;BME280;8772;42.804;23.426;2023-07-13T08:23:37;71836.75;;;-140.58;50.12
17309;BME280;8772;42.804;23.426;2023-07-13T08:26:04;71816.22;;;-140.58;48.47
17309;BME280;8772;42.804;23.426;2023-07-13T08:28:32;71803.94;;;-140.58;48.97
17309;BME280;8772;42.804;23.426;2023-07-13T08:31:02;71789.59;;;-140.58;48.39
17309;BME280;8772;42.804;23.426;2023-07-13T08:33:29;71769.06;;;-140.58;47.76
17309;BME280;8772;42.804;23.426;2023-07-13T08:35:56;71756.78;;;-140.58;50.40
17309;BME280;8772;42.804;23.426;2023-07-13T08:38:23;71732.16;;;-140.58;52.73
17309;BME280;8772;42.804;23.426;2023-07-13T08:40:51;71709.63;;;-140.58;49.42
17309;BME280;8772;42.804;23.426;2023-07-13T08:43:23;71709.63;;;-140.58;47.46
17309;BME280;8772;42.804;23.426;2023-07-13T08:45:55;71699.38;;;-140.58;49.83
17309;BME280;8772;42.804;23.426;2023-07-13T08:48:27;71680.91;;;-140.58;45.47
17309;BME280;8772;42.804;23.426;2023-07-13T08:50:58;71660.41;;;-140.58;46.98
17309;BME280;8772;42.804;23.426;2023-07-13T08:53:32;71639.91;;;-140.58;44.07
17309;BME280;8772;42.804;23.426;2023-07-13T08:56:01;71627.63;;;-140.58;45.05
17309;BME280;8772;42.804;23.426;2023-07-13T08:58:29;71617.38;;;-140.58;44.58
17309;BME280;8772;42.804;23.426;2023-07-13T09:01:14;71594.81;;;-140.58;43.90
17309;BME280;8772;42.804;23.426;2023-07-13T09:03:52;71578.41;;;-140.58;42.99
17309;BME280;8772;42.804;23.426;2023-07-13T09:06:29;71545.63;;;-140.58;41.77
17309;BME280;8772;42.804;23.426;2023-07-13T09:09:01;71516.91;;;-140.58;43.34
17309;BME280;8772;42.804;23.426;2023-07-13T09:11:46;71494.34;;;-140.58;39.49
17309;BME280;8772;42.804;23.426;2023-07-13T09:14:31;71498.47;;;-140.58;40.27
17309;BME280;8772;42.804;23.426;2023-07-13T09:17:00;71455.41;;;-140.58;41.97
17309;BME280;8772;42.804;23.426;2023-07-13T09:19:32;71430.81;;;-140.58;41.59
17309;BME280;8772;42.804;23.426;2023-07-13T09:22:02;71402.09;;;-140.58;39.78
17309;BME280;8772;42.804;23.426;2023-07-13T09:24:36;71367.25;;;-140.58;38.99
17309;BME280;8772;42.804;23.426;2023-07-13T09:27:12;71344.72;;;-140.58;37.62
17309;BME280;8772;42.804;23.426;2023-07-13T09:29:46;71324.22;;;-140.58;39.25
17309;BME280;8772;42.804;23.426;2023-07-13T09:32:15;71307.81;;;-140.58;38.64
17309;BME280;8772;42.804;23.426;2023-07-13T09:34:50;71287.31;;;-140.58;37.64
17309;BME280;8772;42.804;23.426;2023-07-13T09:37:17;71262.72;;;-140.58;39.02
17309;BME280;8772;42.804;23.426;2023-07-13T09:39:46;71275.00;;;-140.58;36.44
17309;BME280;8772;42.804;23.426;2023-07-13T09:42:16;71256.56;;;-140.58;37.66
17309;BME280;8772;42.804;23.426;2023-07-13T09:44:52;71238.13;;;-140.58;38.80
17309;BME280;8772;42.804;23.426;2023-07-13T09:47:20;71199.16;;;-140.58;35.99
17309;BME280;8772;42.804;23.426;2023-07-13T09:49:54;71172.50;;;-140.58;38.53
17309;BME280;8772;42.804;23.426;2023-07-13T09:52:21;71176.63;;;-140.58;34.92
17309;BME280;8772;42.804;23.426;2023-07-13T09:54:50;71139.72;;;-140.58;36.76
17309;BME280;8772;42.804;23.426;2023-07-13T09:57:23;71119.22;;;-140.58;36.02
17309;BME280;8772;42.804;23.426;2023-07-13T09:59:52;71113.06;;;-140.58;37.97
17309;BME280;8772;42.804;23.426;2023-07-13T10:02:23;71072.06;;;-140.58;36.58
17309;BME280;8772;42.804;23.426;2023-07-13T10:04:57;71041.31;;;-140.58;36.19
17309;BME280;8772;42.804;23.426;2023-07-13T10:07:25;71004.44;;;-140.58;34.50
17309;BME280;8772;42.804;23.426;2023-07-13T10:09:53;71006.47;;;-140.58;36.63
17309;BME280;8772;42.804;23.426;2023-07-13T10:12:21;70994.19;;;-140.58;32.79
17309;BME280;8772;42.804;23.426;2023-07-13T10:14:51;71029.03;;;-140.58;33.29
17309;BME280;8772;42.804;23.426;2023-07-13T10:17:26;71049.53;;;-140.58;32.48
17309;BME280;8772;42.804;23.426;2023-07-13T10:19:59;71090.53;;;-140.58;33.65
17309;BME280;8772;42.804;23.426;2023-07-13T10:22:33;71037.22;;;-140.58;35.52
17309;BME280;8772;42.804;23.426;2023-07-13T10:25:14;71000.34;;;-140.58;35.65
17309;BME280;8772;42.804;23.426;2023-07-13T10:27:42;70963.44;;;-140.58;35.02
17309;BME280;8772;42.804;23.426;2023-07-13T10:30:14;70951.13;;;-140.58;33.63
17309;BME280;8772;42.804;23.426;2023-07-13T10:32:42;70957.28;;;-140.58;33.57
17309;BME280;8772;42.804;23.426;2023-07-13T10:35:13;70906.03;;;-140.58;35.30
17309;BME280;8772;42.804;23.426;2023-07-13T10:37:44;70869.16;;;-140.58;31.74
17309;BME280;8772;42.804;23.426;2023-07-13T10:40:18;70869.16;;;-140.58;31.15
17309;BME280;8772;42.804;23.426;2023-07-13T10:42:48;70824.06;;;-140.58;34.78
17309;BME280;8772;42.804;23.426;2023-07-13T10:45:20;70815.84;;;-140.58;30.95
17309;BME280;8772;42.804;23.426;2023-07-13T10:47:48;70803.56;;;-140.58;30.75
17309;BME280;8772;42.804;23.426;2023-07-13T10:50:22;70805.59;;;-140.58;32.15
17309;BME280;8772;42.804;23.426;2023-07-13T10:52:52;70778.97;;;-140.58;32.60
17309;BME280;8772;42.804;23.426;2023-07-13T10:55:36;70778.97;;;-140.58;31.45
17309;BME280;8772;42.804;23.426;2023-07-13T10:58:13;70791.25;;;-140.58;31.91
17309;BME280;8772;42.804;23.426;2023-07-13T11:00:49;70758.47;;;-140.58;29.85
17309;BME280;8772;42.804;23.426;2023-07-13T11:03:19;70754.38;;;-140.58;31.09
17309;BME280;8772;42.804;23.426;2023-07-13T11:06:05;70746.16;;;-140.58;30.33
17309;BME280;8772;42.804;23.426;2023-07-13T11:08:36;70758.47;;;-140.58;32.35
17309;BME280;8772;42.804;23.426;2023-07-13T11:11:34;70729.78;;;-140.58;29.95
17309;BME280;8772;42.804;23.426;2023-07-13T11:14:02;70760.53;;;-140.58;29.20
17309;BME280;8772;42.804;23.426;2023-07-13T11:16:43;70737.97;;;-140.58;29.79
17309;BME280;8772;42.804;23.426;2023-07-13T11:22:22;70696.97;;;-140.58;31.93
17309;BME280;8772;42.804;23.426;2023-07-13T11:24:56;70668.28;;;-140.58;31.31
17309;BME280;8772;42.804;23.426;2023-07-13T11:27:36;70686.72;;;-140.58;30.41
17309;BME280;8772;42.804;23.426;2023-07-13T11:30:21;70684.69;;;-140.58;29.84
17309;BME280;8772;42.804;23.426;2023-07-13T11:33:13;70746.16;;;-140.58;29.29
17309;BME280;8772;42.804;23.426;2023-07-13T11:35:46;70758.47;;;-140.58;29.26
17309;BME280;8772;42.804;23.426;2023-07-13T11:38:19;70754.38;;;-140.58;29.09
17309;BME280;8772;42.804;23.426;2023-07-13T11:40:48;70737.97;;;-140.58;28.64
17309;BME280;8772;42.804;23.426;2023-07-13T11:43:16;70729.78;;;-140.58;30.29
17309;BME280;8772;42.804;23.426;2023-07-13T11:45:43;70717.47;;;-140.58;30.61
17309;BME280;8772;42.804;23.426;2023-07-13T11:48:22;70705.19;;;-140.58;29.28
17309;BME280;8772;42.804;23.426;2023-07-13T11:50:51;70744.13;;;-140.58;31.80
17309;BME280;8772;42.804;23.426;2023-07-13T11:53:21;70729.78;;;-140.58;29.47
17309;BME280;8772;42.804;23.426;2023-07-13T11:55:49;70721.56;;;-140.58;31.67
17309;BME280;8772;42.804;23.426;2023-07-13T11:58:21;70701.06;;;-140.58;31.22
17309;BME280;8772;42.804;23.426;2023-07-13T12:00:50;70668.28;;;-140.58;30.61
17309;BME280;8772;42.804;23.426;2023-07-13T12:03:20;70645.75;;;-140.58;31.76
17309;BME280;8772;42.804;23.426;2023-07-13T12:06:00;70639.59;;;-140.58;29.77
17309;BME280;8772;42.804;23.426;2023-07-13T12:08:29;70621.16;;;-140.58;30.13
17309;BME280;8772;42.804;23.426;2023-07-13T12:10:58;70615.00;;;-140.58;30.88
17309;BME280;8772;42.804;23.426;2023-07-13T12:13:27;70631.41;;;-140.58;27.28
17309;BME280;8772;42.804;23.426;2023-07-13T12:15:56;70615.00;;;-140.58;29.53
17309;BME280;8772;42.804;23.426;2023-07-13T12:18:29;70586.31;;;-140.58;30.25
17309;BME280;8772;42.804;23.426;2023-07-13T12:20:58;70627.28;;;-140.58;29.23
17309;BME280;8772;42.804;23.426;2023-07-13T12:23:30;70598.59;;;-140.58;29.25
17309;BME280;8772;42.804;23.426;2023-07-13T12:25:58;70569.91;;;-140.58;31.27
17309;BME280;8772;42.804;23.426;2023-07-13T12:28:32;70541.22;;;-140.58;29.88
17309;BME280;8772;42.804;23.426;2023-07-13T12:31:00;70518.66;;;-140.58;31.57
17309;BME280;8772;42.804;23.426;2023-07-13T12:33:29;70502.28;;;-140.58;30.01
17309;BME280;8772;42.804;23.426;2023-07-13T12:35:57;70483.84;;;-140.58;30.37
17309;BME280;8772;42.804;23.426;2023-07-13T12:38:29;70469.47;;;-140.58;30.13
17309;BME280;8772;42.804;23.426;2023-07-13T12:40:56;70453.09;;;-140.58;30.23
17309;BME280;8772;42.804;23.426;2023-07-13T12:43:24;70467.44;;;-140.58;28.84
17309;BME280;8772;42.804;23.426;2023-07-13T12:45:57;70492.03;;;-140.58;28.93
17309;BME280;8772;42.804;23.426;2023-07-13T12:48:25;70510.47;;;-140.58;29.60
17309;BME280;8772;42.804;23.426;2023-07-13T12:50:53;70504.31;;;-140.58;28.86
17309;BME280;8772;42.804;23.426;2023-07-13T12:53:23;70508.41;;;-140.58;27.61